sensor_id;sensor_type;location;lat;lon;timestamp;pressure;altitude;pressure_sealevel;temperature;humidity
75290;BME280;63883;48.996;20.804;2023-03-01T00:01:26;97607.81;;;-4.86;87.63
75290;BME280;63883;48.996;20.804;2023-03-01T00:03:52;97609.28;;;-4.90;88.00
75290;BME280;63883;48.996;20.804;2023-03-01T00:06:19;97616.69;;;-4.91;88.04
75290;BME280;63883;48.996;20.804;2023-03-01T00:08:46;97615.06;;;-4.91;88.21
75290;BME280;63883;48.996;20.804;2023-03-01T00:11:13;97615.97;;;-4.89;88.59
75290;BME280;63883;48.996;20.804;2023-03-01T00:13:39;97615.06;;;-4.91;88.49
75290;BME280;63883;48.996;20.804;2023-03-01T00:16:09;97613.25;;;-4.93;89.06
75290;BME280;63883;48.996;20.804;2023-03-01T00:18:34;97609.03;;;-4.78;88.79
75290;BME280;63883;48.996;20.804;2023-03-01T00:21:00;97610.25;;;-4.70;88.15
75290;BME280;63883;48.996;20.804;2023-03-01T00:23:27;97600.78;;;-4.77;87.59
75290;BME280;63883;48.996;20.804;2023-03-01T00:25:53;97598.72;;;-4.86;87.43
75290;BME280;63883;48.996;20.804;2023-03-01T00:28:19;97590.97;;;-4.92;88.10
75290;BME280;63883;48.996;20.804;2023-03-01T00:30:45;97590.19;;;-4.91;87.77
75290;BME280;63883;48.996;20.804;2023-03-01T00:33:11;97593.06;;;-4.99;88.25
75290;BME280;63883;48.996;20.804;2023-03-01T00:35:38;97593.69;;;-5.03;87.85
75290;BME280;63883;48.996;20.804;2023-03-01T00:38:03;97592.78;;;-5.05;87.98
75290;BME280;63883;48.996;20.804;2023-03-01T00:40:32;97589.34;;;-5.07;88.49
75290;BME280;63883;48.996;20.804;2023-03-01T00:42:58;97581.69;;;-5.12;88.79
75290;BME280;63883;48.996;20.804;2023-03-01T00:45:24;97581.69;;;-5.12;89.02
75290;BME280;63883;48.996;20.804;2023-03-01T00:47:50;97573.38;;;-5.13;88.43
75290;BME280;63883;48.996;20.804;2023-03-01T00:50:17;97572.50;;;-5.13;88.79
75290;BME280;63883;48.996;20.804;2023-03-01T00:52:43;97570.72;;;-5.16;89.12
75290;BME280;63883;48.996;20.804;2023-03-01T00:55:10;97567.38;;;-5.16;89.07
75290;BME280;63883;48.996;20.804;2023-03-01T00:57:36;97575.78;;;-5.14;88.93
75290;BME280;63883;48.996;20.804;2023-03-01T01:00:03;97569.16;;;-5.14;88.53
75290;BME280;63883;48.996;20.804;2023-03-01T01:02:31;97563.25;;;-5.16;88.68
75290;BME280;63883;48.996;20.804;2023-03-01T01:04:57;97564.31;;;-5.11;88.69
75290;BME280;63883;48.996;20.804;2023-03-01T01:07:23;97565.75;;;-5.16;88.93
75290;BME280;63883;48.996;20.804;2023-03-01T01:09:48;97567.28;;;-5.18;89.33
75290;BME280;63883;48.996;20.804;2023-03-01T01:12:14;97570.59;;;-5.19;89.91
75290;BME280;63883;48.996;20.804;2023-03-01T01:14:40;97562.88;;;-5.23;89.29
75290;BME280;63883;48.996;20.804;2023-03-01T01:17:05;97564.44;;;-5.25;89.03
75290;BME280;63883;48.996;20.804;2023-03-01T01:19:31;97561.81;;;-5.28;89.70
75290;BME280;63883;48.996;20.804;2023-03-01T01:21:57;97577.50;;;-5.29;89.06
75290;BME280;63883;48.996;20.804;2023-03-01T01:24:22;97574.63;;;-5.21;88.27
75290;BME280;63883;48.996;20.804;2023-03-01T01:26:48;97579.34;;;-5.25;87.98
75290;BME280;63883;48.996;20.804;2023-03-01T01:29:14;97576.44;;;-5.34;87.84
75290;BME280;63883;48.996;20.804;2023-03-01T01:31:41;97571.94;;;-5.41;88.17
75290;BME280;63883;48.996;20.804;2023-03-01T01:34:12;97573.47;;;-5.43;89.00
75290;BME280;63883;48.996;20.804;2023-03-01T01:36:38;97570.22;;;-5.42;89.00
75290;BME280;63883;48.996;20.804;2023-03-01T01:39:04;97565.06;;;-5.45;89.09
75290;BME280;63883;48.996;20.804;2023-03-01T01:41:30;97572.44;;;-5.47;89.01
75290;BME280;63883;48.996;20.804;2023-03-01T01:47:05;97565.63;;;-5.51;89.20
75290;BME280;63883;48.996;20.804;2023-03-01T01:49:49;97572.22;;;-5.52;89.22
75290;BME280;63883;48.996;20.804;2023-03-01T01:52:22;97572.06;;;-5.55;88.95
75290;BME280;63883;48.996;20.804;2023-03-01T01:54:58;97570.22;;;-5.59;88.89
75290;BME280;63883;48.996;20.804;2023-03-01T01:57:33;97567.41;;;-5.65;88.80
75290;BME280;63883;48.996;20.804;2023-03-01T02:00:03;97564.25;;;-5.62;88.88
75290;BME280;63883;48.996;20.804;2023-03-01T02:02:29;97562.44;;;-5.65;88.92
75290;BME280;63883;48.996;20.804;2023-03-01T02:05:11;97565.53;;;-5.69;89.27
75290;BME280;63883;48.996;20.804;2023-03-01T02:07:39;97567.19;;;-5.69;89.32
75290;BME280;63883;48.996;20.804;2023-03-01T02:10:07;97565.31;;;-5.73;89.41
75290;BME280;63883;48.996;20.804;2023-03-01T02:12:34;97561.19;;;-5.73;89.12
75290;BME280;63883;48.996;20.804;2023-03-01T02:14:59;97556.91;;;-5.75;89.60
75290;BME280;63883;48.996;20.804;2023-03-01T02:17:25;97557.56;;;-5.79;89.59
75290;BME280;63883;48.996;20.804;2023-03-01T02:22:29;97557.56;;;-5.79;90.44
75290;BME280;63883;48.996;20.804;2023-03-01T02:27:40;97570.59;;;-5.83;90.45
75290;BME280;63883;48.996;20.804;2023-03-01T02:30:12;97568.19;;;-5.82;89.79
75290;BME280;63883;48.996;20.804;2023-03-01T02:32:40;97577.13;;;-5.85;90.02
75290;BME280;63883;48.996;20.804;2023-03-01T02:35:10;97577.97;;;-5.85;90.35
75290;BME280;63883;48.996;20.804;2023-03-01T02:37:37;97577.88;;;-5.86;89.95
75290;BME280;63883;48.996;20.804;2023-03-01T02:40:07;97565.47;;;-5.86;90.20
75290;BME280;63883;48.996;20.804;2023-03-01T02:42:43;97572.06;;;-5.87;90.26
75290;BME280;63883;48.996;20.804;2023-03-01T02:45:11;97575.41;;;-5.86;90.54
75290;BME280;63883;48.996;20.804;2023-03-01T02:47:37;97573.72;;;-5.87;90.43
75290;BME280;63883;48.996;20.804;2023-03-01T02:50:13;97583.66;;;-5.87;90.46
75290;BME280;63883;48.996;20.804;2023-03-01T02:52:46;97577.75;;;-5.89;90.12
75290;BME280;63883;48.996;20.804;2023-03-01T02:55:17;97581.84;;;-5.90;90.08
75290;BME280;63883;48.996;20.804;2023-03-01T02:57:45;97576.13;;;-5.89;90.39
75290;BME280;63883;48.996;20.804;2023-03-01T03:00:23;97575.25;;;-5.89;90.38
75290;BME280;63883;48.996;20.804;2023-03-01T03:02:52;97580.22;;;-5.89;90.52
75290;BME280;63883;48.996;20.804;2023-03-01T03:05:21;97577.84;;;-5.88;90.92
75290;BME280;63883;48.996;20.804;2023-03-01T03:07:48;97580.38;;;-5.86;91.06
75290;BME280;63883;48.996;20.804;2023-03-01T03:10:18;97580.31;;;-5.88;90.75
75290;BME280;63883;48.996;20.804;2023-03-01T03:12:51;97590.16;;;-5.89;90.66
75290;BME280;63883;48.996;20.804;2023-03-01T03:15:18;97581.09;;;-5.89;90.68
75290;BME280;63883;48.996;20.804;2023-03-01T03:17:43;97574.41;;;-5.90;90.12
75290;BME280;63883;48.996;20.804;2023-03-01T03:20:11;97569.38;;;-5.92;90.60
75290;BME280;63883;48.996;20.804;2023-03-01T03:22:39;97571.00;;;-5.92;90.65
75290;BME280;63883;48.996;20.804;2023-03-01T03:25:06;97566.91;;;-5.92;90.25
75290;BME280;63883;48.996;20.804;2023-03-01T03:27:40;97572.72;;;-5.91;90.33
75290;BME280;63883;48.996;20.804;2023-03-01T03:30:09;97571.88;;;-5.92;90.31
75290;BME280;63883;48.996;20.804;2023-03-01T03:32:41;97567.75;;;-5.91;90.32
75290;BME280;63883;48.996;20.804;2023-03-01T03:35:09;97564.16;;;-5.96;90.05
75290;BME280;63883;48.996;20.804;2023-03-01T03:37:39;97562.44;;;-5.97;90.15
75290;BME280;63883;48.996;20.804;2023-03-01T03:40:24;97568.97;;;-5.99;89.99
75290;BME280;63883;48.996;20.804;2023-03-01T03:42:50;97572.25;;;-6.00;89.92
75290;BME280;63883;48.996;20.804;2023-03-01T03:45:17;97577.13;;;-6.02;90.62
75290;BME280;63883;48.996;20.804;2023-03-01T03:47:43;97567.09;;;-6.03;90.20
75290;BME280;63883;48.996;20.804;2023-03-01T03:50:11;97566.97;;;-6.06;90.40
75290;BME280;63883;48.996;20.804;2023-03-01T03:52:37;97569.50;;;-6.05;90.29
75290;BME280;63883;48.996;20.804;2023-03-01T03:55:04;97570.34;;;-6.04;90.96
75290;BME280;63883;48.996;20.804;2023-03-01T03:57:41;97569.59;;;-6.03;90.54
75290;BME280;63883;48.996;20.804;2023-03-01T04:00:09;97570.34;;;-6.04;90.66
75290;BME280;63883;48.996;20.804;2023-03-01T04:02:43;97576.88;;;-6.06;90.58
75290;BME280;63883;48.996;20.804;2023-03-01T04:05:11;97570.97;;;-6.08;90.11
75290;BME280;63883;48.996;20.804;2023-03-01T04:07:38;97573.47;;;-6.08;90.46
75290;BME280;63883;48.996;20.804;2023-03-01T04:10:06;97570.03;;;-6.10;90.35
75290;BME280;63883;48.996;20.804;2023-03-01T04:12:33;97568.28;;;-6.13;90.54
75290;BME280;63883;48.996;20.804;2023-03-01T04:15:00;97562.69;;;-6.09;91.53
75290;BME280;63883;48.996;20.804;2023-03-01T04:17:26;97569.59;;;-6.03;91.56
75290;BME280;63883;48.996;20.804;2023-03-01T04:19:52;97562.84;;;-5.89;90.61
75290;BME280;63883;48.996;20.804;2023-03-01T04:22:18;97562.94;;;-5.88;88.99
75290;BME280;63883;48.996;20.804;2023-03-01T04:24:44;97562.44;;;-5.97;88.82
75290;BME280;63883;48.996;20.804;2023-03-01T04:27:11;97565.34;;;-6.06;89.16
75290;BME280;63883;48.996;20.804;2023-03-01T04:29:37;97557.53;;;-6.12;89.75
75290;BME280;63883;48.996;20.804;2023-03-01T04:32:03;97555.84;;;-6.13;90.22
75290;BME280;63883;48.996;20.804;2023-03-01T04:34:30;97554.16;;;-6.14;90.26
75290;BME280;63883;48.996;20.804;2023-03-01T04:36:55;97559.97;;;-6.13;90.54
75290;BME280;63883;48.996;20.804;2023-03-01T04:39:21;97559.88;;;-6.15;90.70
75290;BME280;63883;48.996;20.804;2023-03-01T04:41:47;97558.06;;;-6.17;90.77
75290;BME280;63883;48.996;20.804;2023-03-01T04:44:13;97558.00;;;-6.19;90.59
75290;BME280;63883;48.996;20.804;2023-03-01T04:46:38;97559.47;;;-6.22;89.91
75290;BME280;63883;48.996;20.804;2023-03-01T04:49:04;97567.84;;;-6.20;90.68
75290;BME280;63883;48.996;20.804;2023-03-01T04:51:31;97561.78;;;-6.25;90.19
75290;BME280;63883;48.996;20.804;2023-03-01T04:53:59;97562.41;;;-6.29;89.43
75290;BME280;63883;48.996;20.804;2023-03-01T04:56:25;97564.25;;;-6.25;89.63
75290;BME280;63883;48.996;20.804;2023-03-01T04:58:53;97561.38;;;-6.33;89.67
75290;BME280;63883;48.996;20.804;2023-03-01T05:01:20;97560.38;;;-6.37;89.22
75290;BME280;63883;48.996;20.804;2023-03-01T05:03:48;97553.59;;;-6.39;90.21
75290;BME280;63883;48.996;20.804;2023-03-01T05:06:15;97551.88;;;-6.40;90.30
75290;BME280;63883;48.996;20.804;2023-03-01T05:08:42;97549.50;;;-6.39;90.93
75290;BME280;63883;48.996;20.804;2023-03-01T05:11:08;97556.00;;;-6.41;90.44
75290;BME280;63883;48.996;20.804;2023-03-01T05:13:35;97559.50;;;-6.37;90.77
75290;BME280;63883;48.996;20.804;2023-03-01T05:16:02;97557.66;;;-6.41;90.62
75290;BME280;63883;48.996;20.804;2023-03-01T05:18:31;97553.50;;;-6.41;91.54
75290;BME280;63883;48.996;20.804;2023-03-01T05:21:23;97561.66;;;-6.43;91.34
75290;BME280;63883;48.996;20.804;2023-03-01T05:23:49;97566.44;;;-6.46;91.28
75290;BME280;63883;48.996;20.804;2023-03-01T05:26:17;97569.78;;;-6.46;91.26
75290;BME280;63883;48.996;20.804;2023-03-01T05:28:43;97560.03;;;-6.43;91.11
75290;BME280;63883;48.996;20.804;2023-03-01T05:31:09;97572.44;;;-6.43;90.86
75290;BME280;63883;48.996;20.804;2023-03-01T05:33:37;97574.84;;;-6.44;91.22
75290;BME280;63883;48.996;20.804;2023-03-01T05:36:04;97576.66;;;-6.42;90.41
75290;BME280;63883;48.996;20.804;2023-03-01T05:38:30;97580.03;;;-6.40;90.41
75290;BME280;63883;48.996;20.804;2023-03-01T05:40:55;97579.28;;;-6.39;90.45
75290;BME280;63883;48.996;20.804;2023-03-01T05:43:21;97576.88;;;-6.37;90.30
75290;BME280;63883;48.996;20.804;2023-03-01T05:45:47;97581.31;;;-6.32;90.16
75290;BME280;63883;48.996;20.804;2023-03-01T05:48:13;97576.06;;;-6.21;90.07
75290;BME280;63883;48.996;20.804;2023-03-01T05:50:43;97578.69;;;-6.18;89.94
75290;BME280;63883;48.996;20.804;2023-03-01T05:55:38;97581.53;;;-6.12;89.65
75290;BME280;63883;48.996;20.804;2023-03-01T05:58:07;97585.09;;;-6.07;89.80
75290;BME280;63883;48.996;20.804;2023-03-01T06:00:33;97578.91;;;-5.99;90.23
75290;BME280;63883;48.996;20.804;2023-03-01T06:02:59;97581.72;;;-5.93;90.40
75290;BME280;63883;48.996;20.804;2023-03-01T06:05:26;97578.69;;;-5.87;90.17
75290;BME280;63883;48.996;20.804;2023-03-01T06:07:52;97577.13;;;-5.85;90.40
75290;BME280;63883;48.996;20.804;2023-03-01T06:10:19;97579.91;;;-5.79;90.40
75290;BME280;63883;48.996;20.804;2023-03-01T06:12:45;97581.00;;;-5.74;90.03
75290;BME280;63883;48.996;20.804;2023-03-01T06:15:12;97577.06;;;-5.71;90.00
75290;BME280;63883;48.996;20.804;2023-03-01T06:17:41;97576.41;;;-5.67;90.41
75290;BME280;63883;48.996;20.804;2023-03-01T06:20:11;97570.22;;;-5.59;89.98
75290;BME280;63883;48.996;20.804;2023-03-01T06:22:38;97570.69;;;-5.49;89.45
75290;BME280;63883;48.996;20.804;2023-03-01T06:25:05;97575.88;;;-5.45;88.86
75290;BME280;63883;48.996;20.804;2023-03-01T06:27:31;97573.47;;;-5.43;88.94
75290;BME280;63883;48.996;20.804;2023-03-01T06:29:56;97577.19;;;-5.35;88.76
75290;BME280;63883;48.996;20.804;2023-03-01T06:32:22;97579.13;;;-5.30;88.96
75290;BME280;63883;48.996;20.804;2023-03-01T06:34:48;97583.78;;;-5.20;88.65
75290;BME280;63883;48.996;20.804;2023-03-01T06:37:14;97582.66;;;-5.08;88.36
75290;BME280;63883;48.996;20.804;2023-03-01T06:39:39;97579.00;;;-4.99;87.98
75290;BME280;63883;48.996;20.804;2023-03-01T06:42:07;97580.28;;;-4.89;88.07
75290;BME280;63883;48.996;20.804;2023-03-01T06:44:32;97573.28;;;-4.80;87.73
75290;BME280;63883;48.996;20.804;2023-03-01T06:46:59;97569.72;;;-4.67;87.89
75290;BME280;63883;48.996;20.804;2023-03-01T06:49:24;97569.53;;;-4.54;87.85
75290;BME280;63883;48.996;20.804;2023-03-01T06:51:50;97572.66;;;-4.41;88.46
75290;BME280;63883;48.996;20.804;2023-03-01T06:54:16;97568.31;;;-4.27;88.46
75290;BME280;63883;48.996;20.804;2023-03-01T06:56:46;97572.72;;;-4.04;87.39
75290;BME280;63883;48.996;20.804;2023-03-01T06:59:12;97572.84;;;-3.81;86.89
75290;BME280;63883;48.996;20.804;2023-03-01T07:01:38;97575.47;;;-3.61;86.60
75290;BME280;63883;48.996;20.804;2023-03-01T07:04:04;97573.41;;;-3.50;86.03
75290;BME280;63883;48.996;20.804;2023-03-01T07:06:30;97566.59;;;-3.35;84.70
75290;BME280;63883;48.996;20.804;2023-03-01T07:08:55;97564.56;;;-3.24;83.97
75290;BME280;63883;48.996;20.804;2023-03-01T07:11:21;97570.50;;;-3.21;84.04
75290;BME280;63883;48.996;20.804;2023-03-01T07:13:47;97564.06;;;-3.16;83.73
75290;BME280;63883;48.996;20.804;2023-03-01T07:16:13;97562.63;;;-3.10;83.58
75290;BME280;63883;48.996;20.804;2023-03-01T07:18:41;97565.69;;;-2.97;84.23
75290;BME280;63883;48.996;20.804;2023-03-01T07:21:08;97568.66;;;-2.85;82.97
75290;BME280;63883;48.996;20.804;2023-03-01T07:23:34;97558.13;;;-2.78;81.24
75290;BME280;63883;48.996;20.804;2023-03-01T07:26:00;97563.69;;;-2.64;81.11
75290;BME280;63883;48.996;20.804;2023-03-01T07:28:26;97555.75;;;-2.54;80.17
75290;BME280;63883;48.996;20.804;2023-03-01T07:30:53;97559.44;;;-2.44;80.23
75290;BME280;63883;48.996;20.804;2023-03-01T07:33:18;97555.91;;;-2.28;79.12
75290;BME280;63883;48.996;20.804;2023-03-01T07:35:44;97555.91;;;-2.28;79.40
75290;BME280;63883;48.996;20.804;2023-03-01T07:38:10;97557.59;;;-2.27;80.45
75290;BME280;63883;48.996;20.804;2023-03-01T07:40:36;97555.28;;;-2.23;80.09
75290;BME280;63883;48.996;20.804;2023-03-01T07:43:02;97554.84;;;-2.13;79.77
75290;BME280;63883;48.996;20.804;2023-03-01T07:45:28;97548.41;;;-2.06;79.84
75290;BME280;63883;48.996;20.804;2023-03-01T07:47:54;97547.75;;;-2.02;79.93
75290;BME280;63883;48.996;20.804;2023-03-01T07:50:21;97543.84;;;-1.94;79.75
75290;BME280;63883;48.996;20.804;2023-03-01T07:52:48;97547.50;;;-1.86;80.35
75290;BME280;63883;48.996;20.804;2023-03-01T07:55:15;97545.56;;;-1.71;78.69
75290;BME280;63883;48.996;20.804;2023-03-01T07:57:41;97543.75;;;-1.51;78.11
75290;BME280;63883;48.996;20.804;2023-03-01T08:00:10;97545.91;;;-1.36;77.86
75290;BME280;63883;48.996;20.804;2023-03-01T08:02:36;97545.34;;;-1.29;nan
75290;BME280;63883;48.996;20.804;2023-03-01T08:05:02;97546.44;;;-1.21;77.45
75290;BME280;63883;48.996;20.804;2023-03-01T08:07:28;97542.63;;;-1.11;77.41
75290;BME280;63883;48.996;20.804;2023-03-01T08:09:54;97549.59;;;-1.03;77.15
75290;BME280;63883;48.996;20.804;2023-03-01T08:12:19;97547.38;;;-0.94;78.40
75290;BME280;63883;48.996;20.804;2023-03-01T08:14:45;97549.38;;;-0.84;77.15
75290;BME280;63883;48.996;20.804;2023-03-01T08:17:13;97544.75;;;-0.71;76.29
75290;BME280;63883;48.996;20.804;2023-03-01T08:19:39;97537.59;;;-0.61;74.57
75290;BME280;63883;48.996;20.804;2023-03-01T08:22:05;97544.59;;;-0.51;72.95
75290;BME280;63883;48.996;20.804;2023-03-01T08:24:31;97533.28;;;-0.38;73.27
75290;BME280;63883;48.996;20.804;2023-03-01T08:26:56;97530.28;;;-0.26;73.53
75290;BME280;63883;48.996;20.804;2023-03-01T08:29:23;97534.13;;;-0.11;73.62
75290;BME280;63883;48.996;20.804;2023-03-01T08:31:50;97526.25;;;0.06;72.85
75290;BME280;63883;48.996;20.804;2023-03-01T08:34:17;97523.91;;;0.12;70.04
75290;BME280;63883;48.996;20.804;2023-03-01T08:36:45;97514.13;;;0.21;71.24
75290;BME280;63883;48.996;20.804;2023-03-01T08:39:13;97526.53;;;0.46;72.14
75290;BME280;63883;48.996;20.804;2023-03-01T08:41:40;97513.84;;;0.71;70.27
75290;BME280;63883;48.996;20.804;2023-03-01T08:44:06;97518.75;;;1.01;68.59
75290;BME280;63883;48.996;20.804;2023-03-01T08:46:35;97514.31;;;1.24;68.12
75290;BME280;63883;48.996;20.804;2023-03-01T08:49:12;97513.00;;;1.40;66.88
75290;BME280;63883;48.996;20.804;2023-03-01T08:51:38;97496.69;;;1.58;66.16
75290;BME280;63883;48.996;20.804;2023-03-01T08:54:07;97496.50;;;1.88;65.26
75290;BME280;63883;48.996;20.804;2023-03-01T08:56:33;97490.91;;;2.00;64.18
75290;BME280;63883;48.996;20.804;2023-03-01T08:58:59;97497.19;;;2.20;63.21
75290;BME280;63883;48.996;20.804;2023-03-01T09:01:25;97499.22;;;2.40;62.66
75290;BME280;63883;48.996;20.804;2023-03-01T09:03:51;97491.91;;;2.98;61.40
75290;BME280;63883;48.996;20.804;2023-03-01T09:06:17;97489.19;;;3.98;59.16
75290;BME280;63883;48.996;20.804;2023-03-01T09:08:47;97481.88;;;4.94;55.73
75290;BME280;63883;48.996;20.804;2023-03-01T09:11:19;97482.72;;;6.08;52.50
75290;BME280;63883;48.996;20.804;2023-03-01T09:13:46;97469.50;;;7.41;47.82
75290;BME280;63883;48.996;20.804;2023-03-01T09:16:14;97465.75;;;8.67;45.06
75290;BME280;63883;48.996;20.804;2023-03-01T09:18:40;97473.66;;;9.50;41.88
75290;BME280;63883;48.996;20.804;2023-03-01T09:21:14;97470.53;;;10.06;40.62
75290;BME280;63883;48.996;20.804;2023-03-01T09:23:43;97464.03;;;10.55;39.46
75290;BME280;63883;48.996;20.804;2023-03-01T09:26:09;97454.81;;;11.07;38.33
75290;BME280;63883;48.996;20.804;2023-03-01T09:28:37;97455.09;;;11.42;37.02
75290;BME280;63883;48.996;20.804;2023-03-01T09:31:03;97458.50;;;11.41;35.86
75290;BME280;63883;48.996;20.804;2023-03-01T09:33:30;97455.66;;;11.59;36.39
75290;BME280;63883;48.996;20.804;2023-03-01T09:36:02;97455.78;;;12.01;35.50
75290;BME280;63883;48.996;20.804;2023-03-01T09:38:29;97442.84;;;12.08;35.36
75290;BME280;63883;48.996;20.804;2023-03-01T09:40:55;97443.41;;;12.24;34.50
75290;BME280;63883;48.996;20.804;2023-03-01T09:43:35;97447.56;;;12.28;34.99
75290;BME280;63883;48.996;20.804;2023-03-01T09:46:08;97441.03;;;12.55;34.04
75290;BME280;63883;48.996;20.804;2023-03-01T09:48:50;97436.53;;;12.66;32.76
75290;BME280;63883;48.996;20.804;2023-03-01T09:51:26;97436.78;;;12.14;32.65
75290;BME280;63883;48.996;20.804;2023-03-01T09:53:55;97437.94;;;12.41;32.17
75290;BME280;63883;48.996;20.804;2023-03-01T09:56:27;97436.59;;;12.63;31.67
75290;BME280;63883;48.996;20.804;2023-03-01T10:07:11;97419.16;;;13.85;29.35
75290;BME280;63883;48.996;20.804;2023-03-01T10:09:42;97404.94;;;14.34;28.63
75290;BME280;63883;48.996;20.804;2023-03-01T10:12:15;97397.41;;;14.59;28.36
75290;BME280;63883;48.996;20.804;2023-03-01T10:20:22;97383.13;;;14.78;27.64
75290;BME280;63883;48.996;20.804;2023-03-01T10:22:48;97379.19;;;15.47;27.56
75290;BME280;63883;48.996;20.804;2023-03-01T10:30:43;97388.44;;;15.26;26.88
75290;BME280;63883;48.996;20.804;2023-03-01T10:33:22;97386.22;;;16.38;26.32
75290;BME280;63883;48.996;20.804;2023-03-01T10:35:49;97374.84;;;16.89;24.91
75290;BME280;63883;48.996;20.804;2023-03-01T10:38:16;97370.88;;;17.44;24.73
75290;BME280;63883;48.996;20.804;2023-03-01T10:40:57;97366.06;;;17.77;23.78
75290;BME280;63883;48.996;20.804;2023-03-01T10:43:25;97353.22;;;18.14;24.14
75290;BME280;63883;48.996;20.804;2023-03-01T10:45:52;97351.66;;;18.48;22.87
75290;BME280;63883;48.996;20.804;2023-03-01T10:48:24;97350.84;;;19.19;21.97
75290;BME280;63883;48.996;20.804;2023-03-01T10:53:27;97348.59;;;19.47;21.39
75290;BME280;63883;48.996;20.804;2023-03-01T10:56:08;97354.72;;;19.10;21.82
75290;BME280;63883;48.996;20.804;2023-03-01T10:58:36;97348.47;;;18.43;22.30
75290;BME280;63883;48.996;20.804;2023-03-01T11:01:05;97347.97;;;19.08;21.85
75290;BME280;63883;48.996;20.804;2023-03-01T11:03:34;97337.44;;;19.80;21.88
75290;BME280;63883;48.996;20.804;2023-03-01T11:14:06;97326.19;;;20.61;19.69
75290;BME280;63883;48.996;20.804;2023-03-01T11:16:36;97323.00;;;20.56;19.81
75290;BME280;63883;48.996;20.804;2023-03-01T11:21:42;97306.63;;;20.24;20.01
75290;BME280;63883;48.996;20.804;2023-03-01T11:24:12;97305.28;;;20.64;19.82
75290;BME280;63883;48.996;20.804;2023-03-01T11:26:41;97303.06;;;21.48;19.62
75290;BME280;63883;48.996;20.804;2023-03-01T11:31:58;97295.25;;;19.28;20.85
75290;BME280;63883;48.996;20.804;2023-03-01T11:34:38;97294.69;;;19.73;20.88
75290;BME280;63883;48.996;20.804;2023-03-01T11:37:14;97287.03;;;20.18;19.73
75290;BME280;63883;48.996;20.804;2023-03-01T11:39:47;97280.47;;;20.90;19.56
75290;BME280;63883;48.996;20.804;2023-03-01T11:42:20;97275.69;;;20.52;19.31
75290;BME280;63883;48.996;20.804;2023-03-01T11:44:54;97271.28;;;20.84;19.06
75290;BME280;63883;48.996;20.804;2023-03-01T11:50:40;97268.66;;;20.54;19.75
75290;BME280;63883;48.996;20.804;2023-03-01T11:56:31;97267.78;;;18.91;21.64
75290;BME280;63883;48.996;20.804;2023-03-01T12:04:59;97254.28;;;19.36;21.32
75290;BME280;63883;48.996;20.804;2023-03-01T12:13:51;97238.47;;;20.06;19.78
75290;BME280;63883;48.996;20.804;2023-03-01T12:30:21;97207.41;;;18.92;21.18
75290;BME280;63883;48.996;20.804;2023-03-01T12:41:19;97188.22;;;20.56;18.65
75290;BME280;63883;48.996;20.804;2023-03-01T12:44:01;97184.41;;;20.91;18.13
75290;BME280;63883;48.996;20.804;2023-03-01T12:47:05;97177.25;;;21.39;17.69
75290;BME280;63883;48.996;20.804;2023-03-01T12:49:45;97179.41;;;22.02;16.67
75290;BME280;63883;48.996;20.804;2023-03-01T12:54:45;97176.34;;;22.76;16.48
75290;BME280;63883;48.996;20.804;2023-03-01T12:57:42;97170.44;;;22.47;16.57
75290;BME280;63883;48.996;20.804;2023-03-01T13:05:39;97173.59;;;23.91;15.40
75290;BME280;63883;48.996;20.804;2023-03-01T13:10:49;97168.47;;;24.26;15.11
75290;BME280;63883;48.996;20.804;2023-03-01T13:13:23;97168.13;;;23.94;14.83
75290;BME280;63883;48.996;20.804;2023-03-01T13:15:50;97157.34;;;24.11;14.83
75290;BME280;63883;48.996;20.804;2023-03-01T13:36:13;97147.28;;;22.30;15.89
75290;BME280;63883;48.996;20.804;2023-03-01T13:39:03;97146.31;;;22.70;15.43
75290;BME280;63883;48.996;20.804;2023-03-01T13:46:49;97145.22;;;24.23;13.47
75290;BME280;63883;48.996;20.804;2023-03-01T13:49:18;97144.19;;;23.89;13.84
75290;BME280;63883;48.996;20.804;2023-03-01T13:51:50;97132.81;;;23.54;13.79
75290;BME280;63883;48.996;20.804;2023-03-01T13:54:22;97141.22;;;23.70;14.27
75290;BME280;63883;48.996;20.804;2023-03-01T13:56:50;97139.16;;;23.50;14.23
75290;BME280;63883;48.996;20.804;2023-03-01T13:59:19;97139.56;;;22.68;14.70
75290;BME280;63883;48.996;20.804;2023-03-01T14:02:00;97132.63;;;22.29;14.79
75290;BME280;63883;48.996;20.804;2023-03-01T14:04:32;97132.28;;;22.73;14.39
75290;BME280;63883;48.996;20.804;2023-03-01T14:07:19;97133.34;;;22.31;14.83
75290;BME280;63883;48.996;20.804;2023-03-01T14:10:07;97134.25;;;21.76;15.06
75290;BME280;63883;48.996;20.804;2023-03-01T14:15:06;97133.25;;;21.64;15.66
75290;BME280;63883;48.996;20.804;2023-03-01T14:18:18;97127.50;;;21.73;15.67
75290;BME280;63883;48.996;20.804;2023-03-01T14:20:46;97137.03;;;21.32;15.09
75290;BME280;63883;48.996;20.804;2023-03-01T14:23:23;97130.16;;;21.45;15.13
75290;BME280;63883;48.996;20.804;2023-03-01T14:25:55;97131.78;;;21.03;15.30
75290;BME280;63883;48.996;20.804;2023-03-01T14:28:28;97137.34;;;20.97;15.23
75290;BME280;63883;48.996;20.804;2023-03-01T14:30:58;97127.25;;;21.07;15.72
75290;BME280;63883;48.996;20.804;2023-03-01T14:38:30;97120.69;;;21.16;14.85
75290;BME280;63883;48.996;20.804;2023-03-01T14:40:59;97120.94;;;20.97;14.81
75290;BME280;63883;48.996;20.804;2023-03-01T14:43:29;97128.00;;;20.95;14.90
75290;BME280;63883;48.996;20.804;2023-03-01T14:45:55;97123.31;;;21.30;15.08
75290;BME280;63883;48.996;20.804;2023-03-01T14:48:21;97128.72;;;21.11;14.98
75290;BME280;63883;48.996;20.804;2023-03-01T14:50:48;97131.41;;;20.67;15.44
75290;BME280;63883;48.996;20.804;2023-03-01T14:53:19;97127.31;;;19.87;16.11
75290;BME280;63883;48.996;20.804;2023-03-01T14:55:48;97128.84;;;19.27;16.65
75290;BME280;63883;48.996;20.804;2023-03-01T14:58:19;97128.19;;;19.39;16.69
75290;BME280;63883;48.996;20.804;2023-03-01T15:00:57;97135.50;;;19.16;17.23
75290;BME280;63883;48.996;20.804;2023-03-01T15:03:36;97139.03;;;19.30;17.37
75290;BME280;63883;48.996;20.804;2023-03-01T15:06:07;97141.56;;;18.82;17.52
75290;BME280;63883;48.996;20.804;2023-03-01T15:08:35;97136.63;;;18.43;17.23